Time;durP1;ratioP1;P1;durP2;ratioP2;P2;SDS_P1;SDS_P2;PMS_P1;PMS_P2;Temp;Humidity;BMP_temperature;BMP_pressure;BME280_temperature;BME280_humidity;BME280_pressure;Samples;Min_cycle;Max_cycle;Signal;HPM_P1;HPM_P2
2022/01/26 00:05:47;;;;;;;42.25;17.85;;;;;;;-0.36;97.39941;96468.92;;;;
2022/01/26 00:06:48;;;;;;;42.25;17.85;;;;;;;-0.36;97.39941;96468.92;;;;
2022/01/26 00:07:49;;;;;;;42.25;17.85;;;;;;;-0.36;97.39941;96468.92;;;;
2022/01/26 00:08:50;;;;;;;42.25;17.85;;;;;;;-0.36;97.39941;96468.92;;;;
2022/01/26 00:09:50;;;;;;;40.35;18.7;;;;;;;-0.48;97.25977;96447.89;;;;
2022/01/26 00:10:51;;;;;;;40.35;18.7;;;;;;;-0.48;97.25977;96447.89;;;;
2022/01/26 00:11:51;;;;;;;40.35;18.7;;;;;;;-0.48;97.25977;96447.89;;;;
2022/01/26 00:12:53;;;;;;;40.35;18.7;;;;;;;-0.48;97.25977;96447.89;;;;
2022/01/26 00:13:54;;;;;;;40.35;18.7;;;;;;;-0.48;97.25977;96447.89;;;;
2022/01/26 00:14:55;;;;;;;40.35;18.7;;;;;;;-0.48;97.25977;96447.89;;;;
2022/01/26 00:15:57;;;;;;;40.35;18.7;;;;;;;-0.48;97.25977;96447.89;;;;
2022/01/26 00:17:00;;;;;;;40.35;18.7;;;;;;;-0.48;97.25977;96447.89;;;;
2022/01/26 00:18:00;;;;;;;40.35;18.7;;;;;;;-0.48;97.25977;96447.89;;;;
2022/01/26 00:19:02;;;;;;;40.35;18.7;;;;;;;-0.48;97.25977;96447.89;;;;
2022/01/26 00:20:12;;;;;;;43.75;20.2;;;;;;;-0.62;97.2998;96435.49;;;;
2022/01/26 00:21:24;;;;;;;43.75;20.2;;;;;;;-0.62;97.2998;96435.49;;;;
2022/01/26 00:22:55;;;;;;;43.75;20.2;;;;;;;-0.62;97.2998;96435.49;;;;
2022/01/26 00:24:26;;;;;;;43.75;20.2;;;;;;;-0.62;97.2998;96435.49;;;;
2022/01/26 00:25:39;;;;;;;43.75;20.2;;;;;;;-0.62;97.2998;96435.49;;;;
2022/01/26 00:27:02;;;;;;;43.75;20.2;;;;;;;-0.62;97.2998;96435.49;;;;
2022/01/26 00:28:30;;;;;;;43.75;20.2;;;;;;;-0.62;97.2998;96435.49;;;;
2022/01/26 00:29:33;;;;;;;43.75;20.2;;;;;;;-0.62;97.2998;96435.49;;;;
2022/01/26 00:41:06;;;;;;;46.95;19.05;;;;;;;-0.75;97.30078;96443.77;;;;
2022/01/26 00:42:09;;;;;;;43.85;17.65;;;;;;;-0.85;97.08301;96448.24;;;;
2022/01/26 00:43:15;;;;;;;43.85;17.65;;;;;;;-0.85;97.08301;96448.24;;;;
2022/01/26 00:44:16;;;;;;;43.85;17.65;;;;;;;-0.85;97.08301;96448.24;;;;
2022/01/26 00:45:21;;;;;;;43.85;17.65;;;;;;;-0.85;97.08301;96448.24;;;;
2022/01/26 00:46:21;;;;;;;43.85;17.65;;;;;;;-0.85;97.08301;96448.24;;;;
2022/01/26 00:47:23;;;;;;;43.85;17.65;;;;;;;-0.85;97.08301;96448.24;;;;
2022/01/26 00:48:24;;;;;;;43.85;17.65;;;;;;;-0.85;97.08301;96448.24;;;;
2022/01/26 00:49:27;;;;;;;43.85;17.65;;;;;;;-0.85;97.08301;96448.24;;;;
2022/01/26 00:50:27;;;;;;;43.85;17.65;;;;;;;-0.85;97.08301;96448.24;;;;
2022/01/26 00:51:28;;;;;;;43.85;17.65;;;;;;;-0.85;97.08301;96448.24;;;;
2022/01/26 00:52:38;;;;;;;47.34999;18.75;;;;;;;-0.92;96.98535;96436.94;;;;
2022/01/26 00:53:44;;;;;;;47.34999;18.75;;;;;;;-0.92;96.98535;96436.94;;;;
2022/01/26 00:54:46;;;;;;;47.34999;18.75;;;;;;;-0.92;96.98535;96436.94;;;;
2022/01/26 00:55:46;;;;;;;47.34999;18.75;;;;;;;-0.92;96.98535;96436.94;;;;
2022/01/26 00:56:47;;;;;;;47.34999;18.75;;;;;;;-0.92;96.98535;96436.94;;;;
2022/01/26 00:57:48;;;;;;;47.34999;18.75;;;;;;;-0.92;96.98535;96436.94;;;;
2022/01/26 00:58:49;;;;;;;47.34999;18.75;;;;;;;-0.92;96.98535;96436.94;;;;
2022/01/26 00:59:50;;;;;;;47.34999;18.75;;;;;;;-0.92;96.98535;96436.94;;;;
2022/01/26 01:00:51;;;;;;;47.34999;18.75;;;;;;;-0.92;96.98535;96436.94;;;;
2022/01/26 01:01:51;;;;;;;47.34999;18.75;;;;;;;-0.92;96.98535;96436.94;;;;
2022/01/26 01:02:52;;;;;;;51.39999;19.75;;;;;;;-0.93;97.00977;96441.02;;;;
2022/01/26 01:03:55;;;;;;;51.39999;19.75;;;;;;;-0.93;97.00977;96441.02;;;;
2022/01/26 01:04:58;;;;;;;51.39999;19.75;;;;;;;-0.93;97.00977;96441.02;;;;
2022/01/26 01:06:05;;;;;;;51.39999;19.75;;;;;;;-0.93;97.00977;96441.02;;;;
2022/01/26 01:07:09;;;;;;;51.39999;19.75;;;;;;;-0.93;97.00977;96441.02;;;;
2022/01/26 01:08:14;;;;;;;51.39999;19.75;;;;;;;-0.93;97.00977;96441.02;;;;
2022/01/26 01:09:15;;;;;;;51.39999;19.75;;;;;;;-0.93;97.00977;96441.02;;;;
2022/01/26 01:10:19;;;;;;;51.39999;19.75;;;;;;;-0.93;97.00977;96441.02;;;;
2022/01/26 01:11:19;;;;;;;51.39999;19.75;;;;;;;-0.93;97.00977;96441.02;;;;
2022/01/26 01:12:20;;;;;;;51.39999;19.75;;;;;;;-0.93;97.00977;96441.02;;;;
2022/01/26 01:13:23;;;;;;;49.35;19.4;;;;;;;-0.92;97.00586;96451.51;;;;
2022/01/26 01:14:27;;;;;;;49.35;19.4;;;;;;;-0.92;97.00586;96451.51;;;;
2022/01/26 01:15:28;;;;;;;49.35;19.4;;;;;;;-0.92;97.00586;96451.51;;;;
2022/01/26 01:16:30;;;;;;;49.35;19.4;;;;;;;-0.92;97.00586;96451.51;;;;
2022/01/26 01:17:37;;;;;;;49.35;19.4;;;;;;;-0.92;97.00586;96451.51;;;;
2022/01/26 01:18:44;;;;;;;49.35;19.4;;;;;;;-0.92;97.00586;96451.51;;;;
2022/01/26 01:20:03;;;;;;;49.35;19.4;;;;;;;-0.92;97.00586;96451.51;;;;
2022/01/26 01:21:42;;;;;;;49.35;19.4;;;;;;;-0.92;97.00586;96451.51;;;;
2022/01/26 01:23:08;;;;;;;49.35;19.4;;;;;;;-0.92;97.00586;96451.51;;;;
2022/01/26 01:24:35;;;;;;;54.95001;20.4;;;;;;;-0.94;96.85449;96449.06;;;;
2022/01/26 01:30:50;;;;;;;54.95001;20.4;;;;;;;-0.94;96.85449;96449.06;;;;
2022/01/26 01:31:53;;;;;;;54.95001;20.4;;;;;;;-0.94;96.85449;96449.06;;;;
2022/01/26 01:33:04;;;;;;;54.95001;20.4;;;;;;;-0.94;96.85449;96449.06;;;;
2022/01/26 01:34:05;;;;;;;54.95001;20.4;;;;;;;-0.94;96.85449;96449.06;;;;
2022/01/26 01:35:09;;;;;;;52.94999;20.65;;;;;;;-0.96;96.91211;96425.35;;;;
2022/01/26 01:36:11;;;;;;;52.94999;20.65;;;;;;;-0.96;96.91211;96425.35;;;;
2022/01/26 01:37:15;;;;;;;52.94999;20.65;;;;;;;-0.96;96.91211;96425.35;;;;
2022/01/26 01:38:18;;;;;;;52.94999;20.65;;;;;;;-0.96;96.91211;96425.35;;;;
2022/01/26 01:39:18;;;;;;;52.94999;20.65;;;;;;;-0.96;96.91211;96425.35;;;;
2022/01/26 01:40:20;;;;;;;52.94999;20.65;;;;;;;-0.96;96.91211;96425.35;;;;
2022/01/26 01:41:20;;;;;;;52.94999;20.65;;;;;;;-0.96;96.91211;96425.35;;;;
2022/01/26 01:42:21;;;;;;;52.94999;20.65;;;;;;;-0.96;96.91211;96425.35;;;;
2022/01/26 01:43:22;;;;;;;52.94999;20.65;;;;;;;-0.96;96.91211;96425.35;;;;
2022/01/26 01:44:24;;;;;;;52.94999;20.65;;;;;;;-0.96;96.91211;96425.35;;;;
2022/01/26 01:45:24;;;;;;;45.05;18.85;;;;;;;-0.93;97.08203;96429.1;;;;
2022/01/26 01:46:30;;;;;;;45.05;18.85;;;;;;;-0.93;97.08203;96429.1;;;;
2022/01/26 01:47:31;;;;;;;45.05;18.85;;;;;;;-0.93;97.08203;96429.1;;;;
2022/01/26 01:48:33;;;;;;;45.05;18.85;;;;;;;-0.93;97.08203;96429.1;;;;
2022/01/26 01:49:34;;;;;;;45.05;18.85;;;;;;;-0.93;97.08203;96429.1;;;;
2022/01/26 01:50:41;;;;;;;45.05;18.85;;;;;;;-0.93;97.08203;96429.1;;;;
2022/01/26 01:51:47;;;;;;;45.05;18.85;;;;;;;-0.93;97.08203;96429.1;;;;
2022/01/26 01:52:47;;;;;;;45.05;18.85;;;;;;;-0.93;97.08203;96429.1;;;;
2022/01/26 01:53:48;;;;;;;45.05;18.85;;;;;;;-0.93;97.08203;96429.1;;;;
2022/01/26 01:54:52;;;;;;;45.05;18.85;;;;;;;-0.93;97.08203;96429.1;;;;
2022/01/26 01:55:52;;;;;;;45.05;18.85;;;;;;;-0.93;97.08203;96429.1;;;;
2022/01/26 01:56:55;;;;;;;46.7;18.15;;;;;;;-0.97;96.99023;96426.39;;;;
2022/01/26 01:57:57;;;;;;;46.7;18.15;;;;;;;-0.97;96.99023;96426.39;;;;
2022/01/26 01:58:59;;;;;;;46.7;18.15;;;;;;;-0.97;96.99023;96426.39;;;;
2022/01/26 02:00:00;;;;;;;46.7;18.15;;;;;;;-0.97;96.99023;96426.39;;;;
2022/01/26 02:01:00;;;;;;;46.7;18.15;;;;;;;-0.97;96.99023;96426.39;;;;
2022/01/26 02:02:01;;;;;;;46.7;18.15;;;;;;;-0.97;96.99023;96426.39;;;;
2022/01/26 02:03:03;;;;;;;46.7;18.15;;;;;;;-0.97;96.99023;96426.39;;;;
2022/01/26 02:04:04;;;;;;;46.7;18.15;;;;;;;-0.97;96.99023;96426.39;;;;
2022/01/26 02:05:05;;;;;;;46.7;18.15;;;;;;;-0.97;96.99023;96426.39;;;;
2022/01/26 02:06:06;;;;;;;46.7;18.15;;;;;;;-0.97;96.99023;96426.39;;;;
2022/01/26 02:07:06;;;;;;;39.15001;17.3;;;;;;;-1.16;96.80566;96419.67;;;;
2022/01/26 02:08:07;;;;;;;39.15001;17.3;;;;;;;-1.16;96.80566;96419.67;;;;
2022/01/26 02:09:08;;;;;;;39.15001;17.3;;;;;;;-1.16;96.80566;96419.67;;;;
2022/01/26 02:10:09;;;;;;;39.15001;17.3;;;;;;;-1.16;96.80566;96419.67;;;;
2022/01/26 02:11:12;;;;;;;39.15001;17.3;;;;;;;-1.16;96.80566;96419.67;;;;
2022/01/26 02:12:14;;;;;;;39.15001;17.3;;;;;;;-1.16;96.80566;96419.67;;;;
2022/01/26 02:13:21;;;;;;;39.15001;17.3;;;;;;;-1.16;96.80566;96419.67;;;;
2022/01/26 02:14:26;;;;;;;39.15001;17.3;;;;;;;-1.16;96.80566;96419.67;;;;
2022/01/26 02:15:33;;;;;;;39.15001;17.3;;;;;;;-1.16;96.80566;96419.67;;;;
2022/01/26 02:16:42;;;;;;;39.15001;17.3;;;;;;;-1.16;96.80566;96419.67;;;;
2022/01/26 02:18:29;;;;;;;43.4;17.55;;;;;;;-1.27;97.3877;96410.99;;;;
2022/01/26 02:20:03;;;;;;;43.4;17.55;;;;;;;-1.27;97.3877;96410.99;;;;
2022/01/26 02:21:25;;;;;;;43.4;17.55;;;;;;;-1.27;97.3877;96410.99;;;;
2022/01/26 02:50:11;;;;;;;34.00001;15.8;;;;;;;-1.61;97.58301;96398.1;;;;
2022/01/26 02:51:34;;;;;;;37.80001;16.95;;;;;;;-1.78;98.03711;96401.87;;;;
2022/01/26 02:52:48;;;;;;;37.80001;16.95;;;;;;;-1.78;98.03711;96401.87;;;;
2022/01/26 02:54:14;;;;;;;37.80001;16.95;;;;;;;-1.78;98.03711;96401.87;;;;
2022/01/26 02:55:24;;;;;;;37.80001;16.95;;;;;;;-1.78;98.03711;96401.87;;;;
2022/01/26 02:56:31;;;;;;;37.80001;16.95;;;;;;;-1.78;98.03711;96401.87;;;;
2022/01/26 02:57:43;;;;;;;37.80001;16.95;;;;;;;-1.78;98.03711;96401.87;;;;
2022/01/26 02:58:58;;;;;;;37.80001;16.95;;;;;;;-1.78;98.03711;96401.87;;;;
2022/01/26 03:00:16;;;;;;;40.6;18;;;;;;;-1.84;98.28223;96392.66;;;;
2022/01/26 03:01:44;;;;;;;40.6;18;;;;;;;-1.84;98.28223;96392.66;;;;
2022/01/26 03:02:51;;;;;;;40.6;18;;;;;;;-1.84;98.28223;96392.66;;;;
2022/01/26 03:03:59;;;;;;;40.6;18;;;;;;;-1.84;98.28223;96392.66;;;;
2022/01/26 03:05:02;;;;;;;40.6;18;;;;;;;-1.84;98.28223;96392.66;;;;
2022/01/26 03:06:08;;;;;;;40.6;18;;;;;;;-1.84;98.28223;96392.66;;;;
2022/01/26 03:07:14;;;;;;;40.6;18;;;;;;;-1.84;98.28223;96392.66;;;;
2022/01/26 03:08:15;;;;;;;40.6;18;;;;;;;-1.84;98.28223;96392.66;;;;
2022/01/26 03:09:20;;;;;;;40.6;18;;;;;;;-1.84;98.28223;96392.66;;;;
2022/01/26 03:10:25;;;;;;;40.6;18;;;;;;;-1.84;98.28223;96392.66;;;;
2022/01/26 03:11:29;;;;;;;48.84999;15.6;;;;;;;-1.87;98.2959;96390.25;;;;
2022/01/26 03:12:37;;;;;;;48.84999;15.6;;;;;;;-1.87;98.2959;96390.25;;;;
2022/01/26 03:13:42;;;;;;;48.84999;15.6;;;;;;;-1.87;98.2959;96390.25;;;;
2022/01/26 03:14:48;;;;;;;48.84999;15.6;;;;;;;-1.87;98.2959;96390.25;;;;
2022/01/26 03:15:53;;;;;;;48.84999;15.6;;;;;;;-1.87;98.2959;96390.25;;;;
2022/01/26 03:16:58;;;;;;;48.84999;15.6;;;;;;;-1.87;98.2959;96390.25;;;;
2022/01/26 03:18:39;;;;;;;48.84999;15.6;;;;;;;-1.87;98.2959;96390.25;;;;
2022/01/26 03:19:44;;;;;;;48.84999;15.6;;;;;;;-1.87;98.2959;96390.25;;;;
2022/01/26 03:20:46;;;;;;;48.84999;15.6;;;;;;;-1.87;98.2959;96390.25;;;;
2022/01/26 03:21:58;;;;;;;39.5;14.7;;;;;;;-1.88;98.21973;96378.06;;;;
2022/01/26 03:28:20;;;;;;;39.5;14.7;;;;;;;-1.88;98.21973;96378.06;;;;
2022/01/26 03:29:39;;;;;;;39.5;14.7;;;;;;;-1.88;98.21973;96378.06;;;;
2022/01/26 03:31:05;;;;;;;39.5;14.7;;;;;;;-1.88;98.21973;96378.06;;;;
2022/01/26 03:33:23;;;;;;;31.85;14.2;;;;;;;-1.95;97.94629;96374.7;;;;
2022/01/26 03:34:25;;;;;;;31.85;14.2;;;;;;;-1.95;97.94629;96374.7;;;;
2022/01/26 03:35:39;;;;;;;31.85;14.2;;;;;;;-1.95;97.94629;96374.7;;;;
2022/01/26 03:36:47;;;;;;;31.85;14.2;;;;;;;-1.95;97.94629;96374.7;;;;
2022/01/26 03:37:52;;;;;;;31.85;14.2;;;;;;;-1.95;97.94629;96374.7;;;;
2022/01/26 03:39:00;;;;;;;31.85;14.2;;;;;;;-1.95;97.94629;96374.7;;;;
2022/01/26 03:40:03;;;;;;;31.85;14.2;;;;;;;-1.95;97.94629;96374.7;;;;
2022/01/26 03:41:15;;;;;;;31.85;14.2;;;;;;;-1.95;97.94629;96374.7;;;;
2022/01/26 03:42:16;;;;;;;31.85;14.2;;;;;;;-1.95;97.94629;96374.7;;;;
2022/01/26 03:43:16;;;;;;;25.35;14;;;;;;;-2.07;97.80469;96381.96;;;;
2022/01/26 03:44:17;;;;;;;25.35;14;;;;;;;-2.07;97.80469;96381.96;;;;
2022/01/26 03:45:18;;;;;;;25.35;14;;;;;;;-2.07;97.80469;96381.96;;;;
2022/01/26 03:46:18;;;;;;;25.35;14;;;;;;;-2.07;97.80469;96381.96;;;;
2022/01/26 03:47:19;;;;;;;25.35;14;;;;;;;-2.07;97.80469;96381.96;;;;
2022/01/26 03:48:19;;;;;;;25.35;14;;;;;;;-2.07;97.80469;96381.96;;;;
2022/01/26 03:49:20;;;;;;;25.35;14;;;;;;;-2.07;97.80469;96381.96;;;;
2022/01/26 03:50:21;;;;;;;25.35;14;;;;;;;-2.07;97.80469;96381.96;;;;
2022/01/26 03:51:22;;;;;;;25.35;14;;;;;;;-2.07;97.80469;96381.96;;;;
2022/01/26 03:52:23;;;;;;;25.35;14;;;;;;;-2.07;97.80469;96381.96;;;;
2022/01/26 03:53:23;;;;;;;27.85;14.6;;;;;;;-2.19;97.76855;96387.38;;;;
2022/01/26 03:54:24;;;;;;;27.85;14.6;;;;;;;-2.19;97.76855;96387.38;;;;
2022/01/26 03:55:24;;;;;;;27.85;14.6;;;;;;;-2.19;97.76855;96387.38;;;;
2022/01/26 03:56:25;;;;;;;27.85;14.6;;;;;;;-2.19;97.76855;96387.38;;;;
2022/01/26 03:57:26;;;;;;;27.85;14.6;;;;;;;-2.19;97.76855;96387.38;;;;
2022/01/26 03:58:26;;;;;;;27.85;14.6;;;;;;;-2.19;97.76855;96387.38;;;;
2022/01/26 03:59:27;;;;;;;27.85;14.6;;;;;;;-2.19;97.76855;96387.38;;;;
2022/01/26 04:00:28;;;;;;;27.85;14.6;;;;;;;-2.19;97.76855;96387.38;;;;
2022/01/26 04:01:28;;;;;;;27.85;14.6;;;;;;;-2.19;97.76855;96387.38;;;;
2022/01/26 04:02:29;;;;;;;27.85;14.6;;;;;;;-2.19;97.76855;96387.38;;;;
2022/01/26 04:03:29;;;;;;;27.85;14.6;;;;;;;-2.19;97.76855;96387.38;;;;
2022/01/26 04:04:35;;;;;;;33.85;15.1;;;;;;;-2.29;97.97363;96390.42;;;;
2022/01/26 04:05:36;;;;;;;33.85;15.1;;;;;;;-2.29;97.97363;96390.42;;;;
2022/01/26 04:06:36;;;;;;;33.85;15.1;;;;;;;-2.29;97.97363;96390.42;;;;
2022/01/26 04:07:37;;;;;;;33.85;15.1;;;;;;;-2.29;97.97363;96390.42;;;;
2022/01/26 04:08:41;;;;;;;33.85;15.1;;;;;;;-2.29;97.97363;96390.42;;;;
2022/01/26 04:09:41;;;;;;;33.85;15.1;;;;;;;-2.29;97.97363;96390.42;;;;
2022/01/26 04:10:52;;;;;;;33.85;15.1;;;;;;;-2.29;97.97363;96390.42;;;;
2022/01/26 04:11:53;;;;;;;33.85;15.1;;;;;;;-2.29;97.97363;96390.42;;;;
2022/01/26 04:12:54;;;;;;;33.85;15.1;;;;;;;-2.29;97.97363;96390.42;;;;
2022/01/26 04:13:54;;;;;;;33.85;15.1;;;;;;;-2.29;97.97363;96390.42;;;;
2022/01/26 04:15:02;;;;;;;32.15;15.4;;;;;;;-2.32;97.88281;96395.53;;;;
2022/01/26 04:16:03;;;;;;;32.15;15.4;;;;;;;-2.32;97.88281;96395.53;;;;
2022/01/26 04:17:05;;;;;;;32.15;15.4;;;;;;;-2.32;97.88281;96395.53;;;;
2022/01/26 04:18:08;;;;;;;32.15;15.4;;;;;;;-2.32;97.88281;96395.53;;;;
2022/01/26 04:19:09;;;;;;;32.15;15.4;;;;;;;-2.32;97.88281;96395.53;;;;
2022/01/26 04:20:12;;;;;;;32.15;15.4;;;;;;;-2.32;97.88281;96395.53;;;;
2022/01/26 04:21:20;;;;;;;32.15;15.4;;;;;;;-2.32;97.88281;96395.53;;;;
2022/01/26 04:22:27;;;;;;;32.15;15.4;;;;;;;-2.32;97.88281;96395.53;;;;
2022/01/26 04:23:29;;;;;;;32.15;15.4;;;;;;;-2.32;97.88281;96395.53;;;;
2022/01/26 04:24:35;;;;;;;32.15;15.4;;;;;;;-2.32;97.88281;96395.53;;;;
2022/01/26 04:25:37;;;;;;;94.90001;16.85;;;;;;;-2.36;97.78125;96403.78;;;;
2022/01/26 04:26:43;;;;;;;94.90001;16.85;;;;;;;-2.36;97.78125;96403.78;;;;
2022/01/26 04:27:47;;;;;;;94.90001;16.85;;;;;;;-2.36;97.78125;96403.78;;;;
2022/01/26 04:28:53;;;;;;;94.90001;16.85;;;;;;;-2.36;97.78125;96403.78;;;;
2022/01/26 04:29:53;;;;;;;94.90001;16.85;;;;;;;-2.36;97.78125;96403.78;;;;
2022/01/26 04:30:54;;;;;;;94.90001;16.85;;;;;;;-2.36;97.78125;96403.78;;;;
2022/01/26 04:31:55;;;;;;;94.90001;16.85;;;;;;;-2.36;97.78125;96403.78;;;;
2022/01/26 04:33:02;;;;;;;94.90001;16.85;;;;;;;-2.36;97.78125;96403.78;;;;
2022/01/26 04:34:03;;;;;;;94.90001;16.85;;;;;;;-2.36;97.78125;96403.78;;;;
2022/01/26 04:35:03;;;;;;;94.90001;16.85;;;;;;;-2.36;97.78125;96403.78;;;;
2022/01/26 04:36:09;;;;;;;34.75;15.9;;;;;;;-2.36;97.94629;96399.81;;;;
2022/01/26 04:37:18;;;;;;;34.75;15.9;;;;;;;-2.36;97.94629;96399.81;;;;
2022/01/26 04:38:23;;;;;;;34.75;15.9;;;;;;;-2.36;97.94629;96399.81;;;;
2022/01/26 04:39:28;;;;;;;34.75;15.9;;;;;;;-2.36;97.94629;96399.81;;;;
2022/01/26 04:40:36;;;;;;;34.75;15.9;;;;;;;-2.36;97.94629;96399.81;;;;
2022/01/26 04:41:41;;;;;;;34.75;15.9;;;;;;;-2.36;97.94629;96399.81;;;;
2022/01/26 04:42:49;;;;;;;34.75;15.9;;;;;;;-2.36;97.94629;96399.81;;;;
2022/01/26 04:43:54;;;;;;;34.75;15.9;;;;;;;-2.36;97.94629;96399.81;;;;
2022/01/26 04:45:01;;;;;;;34.75;15.9;;;;;;;-2.36;97.94629;96399.81;;;;
2022/01/26 04:46:02;;;;;;;34.75;15.9;;;;;;;-2.36;97.94629;96399.81;;;;
2022/01/26 04:47:03;;;;;;;38.25;14.3;;;;;;;-2.31;98.22754;96395;;;;
2022/01/26 04:48:03;;;;;;;38.25;14.3;;;;;;;-2.31;98.22754;96395;;;;
2022/01/26 04:49:04;;;;;;;38.25;14.3;;;;;;;-2.31;98.22754;96395;;;;
2022/01/26 04:50:05;;;;;;;38.25;14.3;;;;;;;-2.31;98.22754;96395;;;;
2022/01/26 04:51:08;;;;;;;38.25;14.3;;;;;;;-2.31;98.22754;96395;;;;
2022/01/26 04:52:09;;;;;;;38.25;14.3;;;;;;;-2.31;98.22754;96395;;;;
2022/01/26 04:53:09;;;;;;;38.25;14.3;;;;;;;-2.31;98.22754;96395;;;;
2022/01/26 04:54:10;;;;;;;38.25;14.3;;;;;;;-2.31;98.22754;96395;;;;
2022/01/26 04:55:11;;;;;;;38.25;14.3;;;;;;;-2.31;98.22754;96395;;;;
2022/01/26 04:56:14;;;;;;;38.25;14.3;;;;;;;-2.31;98.22754;96395;;;;
2022/01/26 04:57:15;;;;;;;38.25;14.3;;;;;;;-2.31;98.22754;96395;;;;
2022/01/26 04:58:15;;;;;;;30.55;14.55;;;;;;;-2.33;98.06348;96396.98;;;;
2022/01/26 04:59:16;;;;;;;30.55;14.55;;;;;;;-2.33;98.06348;96396.98;;;;
2022/01/26 05:00:16;;;;;;;30.55;14.55;;;;;;;-2.33;98.06348;96396.98;;;;
2022/01/26 05:01:17;;;;;;;30.55;14.55;;;;;;;-2.33;98.06348;96396.98;;;;
2022/01/26 05:02:17;;;;;;;30.55;14.55;;;;;;;-2.33;98.06348;96396.98;;;;
2022/01/26 05:03:18;;;;;;;30.55;14.55;;;;;;;-2.33;98.06348;96396.98;;;;
2022/01/26 05:04:19;;;;;;;30.55;14.55;;;;;;;-2.33;98.06348;96396.98;;;;
2022/01/26 05:05:19;;;;;;;30.55;14.55;;;;;;;-2.33;98.06348;96396.98;;;;
2022/01/26 05:06:20;;;;;;;30.55;14.55;;;;;;;-2.33;98.06348;96396.98;;;;
2022/01/26 05:07:20;;;;;;;30.55;14.55;;;;;;;-2.33;98.06348;96396.98;;;;
2022/01/26 05:08:21;;;;;;;28.1;15;;;;;;;-2.4;97.99902;96404.61;;;;
2022/01/26 05:09:22;;;;;;;28.1;15;;;;;;;-2.4;97.99902;96404.61;;;;
2022/01/26 05:10:22;;;;;;;28.1;15;;;;;;;-2.4;97.99902;96404.61;;;;
2022/01/26 05:11:31;;;;;;;28.1;15;;;;;;;-2.4;97.99902;96404.61;;;;
2022/01/26 05:12:33;;;;;;;28.1;15;;;;;;;-2.4;97.99902;96404.61;;;;
2022/01/26 05:13:34;;;;;;;28.1;15;;;;;;;-2.4;97.99902;96404.61;;;;
2022/01/26 05:14:34;;;;;;;28.1;15;;;;;;;-2.4;97.99902;96404.61;;;;
2022/01/26 05:15:35;;;;;;;28.1;15;;;;;;;-2.4;97.99902;96404.61;;;;
2022/01/26 05:16:35;;;;;;;28.1;15;;;;;;;-2.4;97.99902;96404.61;;;;
2022/01/26 05:17:36;;;;;;;28.1;15;;;;;;;-2.4;97.99902;96404.61;;;;
2022/01/26 05:18:37;;;;;;;28.1;15;;;;;;;-2.4;97.99902;96404.61;;;;
2022/01/26 05:19:38;;;;;;;23.85;12.85;;;;;;;-2.59;97.93262;96407.53;;;;
2022/01/26 05:20:39;;;;;;;23.85;12.85;;;;;;;-2.59;97.93262;96407.53;;;;
2022/01/26 05:21:41;;;;;;;23.85;12.85;;;;;;;-2.59;97.93262;96407.53;;;;
2022/01/26 05:22:44;;;;;;;23.85;12.85;;;;;;;-2.59;97.93262;96407.53;;;;
2022/01/26 05:23:44;;;;;;;23.85;12.85;;;;;;;-2.59;97.93262;96407.53;;;;
2022/01/26 05:24:45;;;;;;;23.85;12.85;;;;;;;-2.59;97.93262;96407.53;;;;
2022/01/26 05:25:46;;;;;;;23.85;12.85;;;;;;;-2.59;97.93262;96407.53;;;;
2022/01/26 05:26:46;;;;;;;23.85;12.85;;;;;;;-2.59;97.93262;96407.53;;;;
2022/01/26 05:27:47;;;;;;;23.85;12.85;;;;;;;-2.59;97.93262;96407.53;;;;
2022/01/26 05:28:47;;;;;;;23.85;12.85;;;;;;;-2.59;97.93262;96407.53;;;;
2022/01/26 05:29:49;;;;;;;25.5;12.95;;;;;;;-2.91;98.13672;96398.38;;;;
2022/01/26 05:30:49;;;;;;;25.5;12.95;;;;;;;-2.91;98.13672;96398.38;;;;
2022/01/26 05:31:50;;;;;;;25.5;12.95;;;;;;;-2.91;98.13672;96398.38;;;;
2022/01/26 05:32:50;;;;;;;25.5;12.95;;;;;;;-2.91;98.13672;96398.38;;;;
2022/01/26 05:33:51;;;;;;;25.5;12.95;;;;;;;-2.91;98.13672;96398.38;;;;
2022/01/26 05:34:51;;;;;;;25.5;12.95;;;;;;;-2.91;98.13672;96398.38;;;;
2022/01/26 05:35:52;;;;;;;25.5;12.95;;;;;;;-2.91;98.13672;96398.38;;;;
2022/01/26 05:36:53;;;;;;;25.5;12.95;;;;;;;-2.91;98.13672;96398.38;;;;
2022/01/26 05:37:53;;;;;;;25.5;12.95;;;;;;;-2.91;98.13672;96398.38;;;;
2022/01/26 05:38:54;;;;;;;25.5;12.95;;;;;;;-2.91;98.13672;96398.38;;;;
2022/01/26 05:39:54;;;;;;;0;0;;;;;;;0;0;0;;;;
2022/01/26 05:40:57;;;;;;;0;0;;;;;;;0;0;0;;;;
2022/01/26 05:41:57;;;;;;;0;0;;;;;;;0;0;0;;;;
2022/01/26 05:42:58;;;;;;;0;0;;;;;;;0;0;0;;;;
2022/01/26 05:43:59;;;;;;;0;0;;;;;;;0;0;0;;;;
2022/01/26 05:45:03;;;;;;;0;0;;;;;;;0;0;0;;;;
2022/01/26 05:46:08;;;;;;;0;0;;;;;;;0;0;0;;;;
2022/01/26 05:47:14;;;;;;;0;0;;;;;;;0;0;0;;;;
2022/01/26 05:48:15;;;;;;;0;0;;;;;;;0;0;0;;;;
2022/01/26 05:49:17;;;;;;;0;0;;;;;;;0;0;0;;;;
2022/01/26 05:50:19;;;;;;;0;0;;;;;;;0;0;0;;;;
2022/01/26 05:51:20;;;;;;;0;0;;;;;;;0;0;0;;;;
2022/01/26 05:52:20;;;;;;;0;0;;;;;;;0;0;0;;;;
2022/01/26 05:53:21;;;;;;;0;0;;;;;;;0;0;0;;;;
2022/01/26 05:54:21;;;;;;;0;0;;;;;;;0;0;0;;;;
2022/01/26 05:55:22;;;;;;;0;0;;;;;;;0;0;0;;;;
2022/01/26 05:56:23;;;;;;;0;0;;;;;;;0;0;0;;;;
2022/01/26 05:57:23;;;;;;;0;0;;;;;;;0;0;0;;;;
2022/01/26 05:58:24;;;;;;;0;0;;;;;;;0;0;0;;;;
2022/01/26 05:59:25;;;;;;;0;0;;;;;;;0;0;0;;;;
2022/01/26 06:00:25;;;;;;;0;0;;;;;;;0;0;0;;;;
2022/01/26 06:01:26;;;;;;;0;0;;;;;;;0;0;0;;;;
2022/01/26 06:02:27;;;;;;;0;0;;;;;;;0;0;0;;;;
2022/01/26 06:03:27;;;;;;;0;0;;;;;;;0;0;0;;;;
2022/01/26 06:04:29;;;;;;;0;0;;;;;;;0;0;0;;;;
2022/01/26 06:05:31;;;;;;;0;0;;;;;;;0;0;0;;;;
2022/01/26 06:06:31;;;;;;;0;0;;;;;;;0;0;0;;;;
2022/01/26 06:07:32;;;;;;;0;0;;;;;;;0;0;0;;;;
2022/01/26 06:08:32;;;;;;;0;0;;;;;;;0;0;0;;;;
2022/01/26 06:09:33;;;;;;;0;0;;;;;;;0;0;0;;;;
2022/01/26 06:10:33;;;;;;;0;0;;;;;;;0;0;0;;;;
2022/01/26 06:11:34;;;;;;;0;0;;;;;;;0;0;0;;;;
2022/01/26 06:12:34;;;;;;;0;0;;;;;;;0;0;0;;;;
2022/01/26 06:13:35;;;;;;;0;0;;;;;;;0;0;0;;;;
2022/01/26 06:14:35;;;;;;;0;0;;;;;;;0;0;0;;;;
2022/01/26 06:15:36;;;;;;;0;0;;;;;;;0;0;0;;;;
2022/01/26 06:16:36;;;;;;;0;0;;;;;;;0;0;0;;;;
2022/01/26 06:17:37;;;;;;;0;0;;;;;;;0;0;0;;;;
2022/01/26 06:18:38;;;;;;;0;0;;;;;;;0;0;0;;;;
2022/01/26 06:19:38;;;;;;;0;0;;;;;;;0;0;0;;;;
2022/01/26 06:20:39;;;;;;;0;0;;;;;;;0;0;0;;;;
2022/01/26 06:21:40;;;;;;;0;0;;;;;;;0;0;0;;;;
2022/01/26 06:22:40;;;;;;;0;0;;;;;;;0;0;0;;;;
2022/01/26 06:23:41;;;;;;;0;0;;;;;;;0;0;0;;;;
2022/01/26 06:24:42;;;;;;;0;0;;;;;;;0;0;0;;;;
2022/01/26 06:25:44;;;;;;;0;0;;;;;;;0;0;0;;;;
2022/01/26 06:26:45;;;;;;;0;0;;;;;;;0;0;0;;;;
2022/01/26 06:27:46;;;;;;;0;0;;;;;;;0;0;0;;;;
2022/01/26 06:28:46;;;;;;;0;0;;;;;;;0;0;0;;;;
2022/01/26 06:29:47;;;;;;;0;0;;;;;;;0;0;0;;;;
2022/01/26 06:30:47;;;;;;;0;0;;;;;;;0;0;0;;;;
2022/01/26 06:31:49;;;;;;;0;0;;;;;;;0;0;0;;;;
2022/01/26 06:32:50;;;;;;;0;0;;;;;;;0;0;0;;;;
2022/01/26 06:33:51;;;;;;;0;0;;;;;;;0;0;0;;;;
2022/01/26 06:34:52;;;;;;;0;0;;;;;;;0;0;0;;;;
2022/01/26 06:35:52;;;;;;;0;0;;;;;;;0;0;0;;;;
2022/01/26 06:36:53;;;;;;;0;0;;;;;;;0;0;0;;;;
2022/01/26 06:37:54;;;;;;;0;0;;;;;;;0;0;0;;;;
2022/01/26 06:38:54;;;;;;;0;0;;;;;;;0;0;0;;;;
2022/01/26 06:39:55;;;;;;;0;0;;;;;;;0;0;0;;;;
2022/01/26 06:40:56;;;;;;;0;0;;;;;;;0;0;0;;;;
2022/01/26 06:41:58;;;;;;;0;0;;;;;;;0;0;0;;;;
2022/01/26 06:43:01;;;;;;;0;0;;;;;;;0;0;0;;;;
2022/01/26 06:44:09;;;;;;;0;0;;;;;;;0;0;0;;;;
2022/01/26 06:45:16;;;;;;;0;0;;;;;;;0;0;0;;;;
2022/01/26 06:46:23;;;;;;;0;0;;;;;;;0;0;0;;;;
2022/01/26 06:47:46;;;;;;;0;0;;;;;;;0;0;0;;;;
2022/01/26 06:49:02;;;;;;;0;0;;;;;;;0;0;0;;;;
2022/01/26 06:50:03;;;;;;;0;0;;;;;;;0;0;0;;;;
2022/01/26 06:51:05;;;;;;;0;0;;;;;;;0;0;0;;;;
2022/01/26 06:52:06;;;;;;;0;0;;;;;;;0;0;0;;;;
2022/01/26 06:53:07;;;;;;;0;0;;;;;;;0;0;0;;;;
2022/01/26 06:54:08;;;;;;;0;0;;;;;;;0;0;0;;;;
2022/01/26 06:55:09;;;;;;;0;0;;;;;;;0;0;0;;;;
2022/01/26 06:56:10;;;;;;;0;0;;;;;;;0;0;0;;;;
2022/01/26 06:57:11;;;;;;;0;0;;;;;;;0;0;0;;;;
2022/01/26 06:58:12;;;;;;;0;0;;;;;;;0;0;0;;;;
2022/01/26 06:59:12;;;;;;;0;0;;;;;;;0;0;0;;;;
2022/01/26 07:00:13;;;;;;;0;0;;;;;;;0;0;0;;;;
2022/01/26 07:01:15;;;;;;;0;0;;;;;;;0;0;0;;;;
2022/01/26 07:02:16;;;;;;;0;0;;;;;;;0;0;0;;;;
2022/01/26 07:03:17;;;;;;;0;0;;;;;;;0;0;0;;;;
2022/01/26 07:04:17;;;;;;;0;0;;;;;;;0;0;0;;;;
2022/01/26 07:05:18;;;;;;;0;0;;;;;;;0;0;0;;;;
2022/01/26 07:06:18;;;;;;;0;0;;;;;;;0;0;0;;;;
2022/01/26 07:07:19;;;;;;;0;0;;;;;;;0;0;0;;;;
2022/01/26 07:08:19;;;;;;;0;0;;;;;;;0;0;0;;;;
2022/01/26 07:09:20;;;;;;;0;0;;;;;;;0;0;0;;;;
2022/01/26 07:10:20;;;;;;;0;0;;;;;;;0;0;0;;;;
2022/01/26 07:11:21;;;;;;;0;0;;;;;;;0;0;0;;;;
2022/01/26 07:12:21;;;;;;;0;0;;;;;;;0;0;0;;;;
2022/01/26 07:13:24;;;;;;;0;0;;;;;;;0;0;0;;;;
2022/01/26 07:19:46;;;;;;;0;0;;;;;;;0;0;0;;;;
2022/01/26 07:24:46;;;;;;;0;0;;;;;;;0;0;0;;;;
2022/01/26 07:25:47;;;;;;;0;0;;;;;;;0;0;0;;;;
2022/01/26 07:26:52;;;;;;;0;0;;;;;;;0;0;0;;;;
2022/01/26 07:27:52;;;;;;;0;0;;;;;;;0;0;0;;;;
2022/01/26 07:28:53;;;;;;;0;0;;;;;;;0;0;0;;;;
2022/01/26 07:29:54;;;;;;;0;0;;;;;;;0;0;0;;;;
2022/01/26 07:30:54;;;;;;;0;0;;;;;;;0;0;0;;;;
2022/01/26 07:31:55;;;;;;;0;0;;;;;;;0;0;0;;;;
2022/01/26 07:32:55;;;;;;;0;0;;;;;;;0;0;0;;;;
2022/01/26 07:33:57;;;;;;;0;0;;;;;;;0;0;0;;;;
2022/01/26 07:34:58;;;;;;;0;0;;;;;;;0;0;0;;;;
2022/01/26 07:35:58;;;;;;;0;0;;;;;;;0;0;0;;;;
2022/01/26 07:37:02;;;;;;;0;0;;;;;;;0;0;0;;;;